sensor_id;sensor_type;location;lat;lon;timestamp;P1;durP1;ratioP1;P2;durP2;ratioP2
53646;SDS011;39550;52.230;5.194;2022-09-09T00:03:51;3.72;;;2.00;;
53646;SDS011;39550;52.230;5.194;2022-09-09T00:06:28;3.75;;;1.98;;
53646;SDS011;39550;52.230;5.194;2022-09-09T00:16:51;3.88;;;2.00;;
53646;SDS011;39550;52.230;5.194;2022-09-09T00:19:35;4.75;;;2.10;;
53646;SDS011;39550;52.230;5.194;2022-09-09T00:22:17;2.88;;;1.80;;
53646;SDS011;39550;52.230;5.194;2022-09-09T00:24:46;3.38;;;1.80;;
53646;SDS011;39550;52.230;5.194;2022-09-09T00:30:18;3.33;;;1.67;;
53646;SDS011;39550;52.230;5.194;2022-09-09T00:32:47;3.33;;;1.92;;
53646;SDS011;39550;52.230;5.194;2022-09-09T00:35:22;3.58;;;1.80;;
53646;SDS011;39550;52.230;5.194;2022-09-09T00:37:54;4.35;;;2.00;;
53646;SDS011;39550;52.230;5.194;2022-09-09T00:48:34;3.50;;;2.00;;
53646;SDS011;39550;52.230;5.194;2022-09-09T00:51:09;3.10;;;1.90;;
53646;SDS011;39550;52.230;5.194;2022-09-09T00:53:58;3.88;;;2.00;;
53646;SDS011;39550;52.230;5.194;2022-09-09T00:56:37;3.05;;;1.70;;
53646;SDS011;39550;52.230;5.194;2022-09-09T01:01:35;3.30;;;1.80;;
53646;SDS011;39550;52.230;5.194;2022-09-09T01:04:01;3.47;;;1.80;;
53646;SDS011;39550;52.230;5.194;2022-09-09T01:06:34;3.40;;;1.75;;
53646;SDS011;39550;52.230;5.194;2022-09-09T01:09:06;3.70;;;1.90;;
53646;SDS011;39550;52.230;5.194;2022-09-09T01:11:37;3.75;;;1.63;;
53646;SDS011;39550;52.230;5.194;2022-09-09T01:14:14;4.25;;;1.90;;
53646;SDS011;39550;52.230;5.194;2022-09-09T01:16:50;3.97;;;1.88;;
53646;SDS011;39550;52.230;5.194;2022-09-09T01:22:35;3.40;;;1.80;;
53646;SDS011;39550;52.230;5.194;2022-09-09T01:25:01;4.05;;;1.80;;
53646;SDS011;39550;52.230;5.194;2022-09-09T01:27:27;3.40;;;1.75;;
53646;SDS011;39550;52.230;5.194;2022-09-09T01:29:52;3.92;;;1.90;;
53646;SDS011;39550;52.230;5.194;2022-09-09T01:33:00;3.22;;;1.80;;
53646;SDS011;39550;52.230;5.194;2022-09-09T01:35:21;3.22;;;1.70;;
53646;SDS011;39550;52.230;5.194;2022-09-09T01:38:09;4.25;;;1.80;;
53646;SDS011;39550;52.230;5.194;2022-09-09T01:40:35;3.97;;;1.77;;
53646;SDS011;39550;52.230;5.194;2022-09-09T01:43:01;4.13;;;1.88;;
53646;SDS011;39550;52.230;5.194;2022-09-09T01:45:27;4.32;;;1.88;;
53646;SDS011;39550;52.230;5.194;2022-09-09T01:47:53;3.53;;;2.03;;
53646;SDS011;39550;52.230;5.194;2022-09-09T01:50:19;3.40;;;1.80;;
53646;SDS011;39550;52.230;5.194;2022-09-09T01:52:46;3.80;;;1.98;;
53646;SDS011;39550;52.230;5.194;2022-09-09T01:55:15;3.75;;;2.08;;
53646;SDS011;39550;52.230;5.194;2022-09-09T02:00:43;5.10;;;1.80;;
53646;SDS011;39550;52.230;5.194;2022-09-09T02:08:20;5.25;;;2.20;;
53646;SDS011;39550;52.230;5.194;2022-09-09T02:11:05;3.80;;;2.10;;
53646;SDS011;39550;52.230;5.194;2022-09-09T02:13:43;3.60;;;1.73;;
53646;SDS011;39550;52.230;5.194;2022-09-09T02:19:14;3.70;;;2.17;;
53646;SDS011;39550;52.230;5.194;2022-09-09T02:21:50;2.92;;;1.73;;
53646;SDS011;39550;52.230;5.194;2022-09-09T02:24:19;3.47;;;1.88;;
53646;SDS011;39550;52.230;5.194;2022-09-09T02:26:44;4.00;;;1.92;;
53646;SDS011;39550;52.230;5.194;2022-09-09T02:29:20;4.43;;;2.03;;
53646;SDS011;39550;52.230;5.194;2022-09-09T02:31:49;3.45;;;2.10;;
53646;SDS011;39550;52.230;5.194;2022-09-09T02:34:15;3.45;;;2.00;;
53646;SDS011;39550;52.230;5.194;2022-09-09T02:36:43;3.47;;;2.10;;
53646;SDS011;39550;52.230;5.194;2022-09-09T02:39:10;3.90;;;1.90;;
53646;SDS011;39550;52.230;5.194;2022-09-09T02:41:37;3.38;;;1.80;;
53646;SDS011;39550;52.230;5.194;2022-09-09T02:44:05;4.13;;;2.03;;
53646;SDS011;39550;52.230;5.194;2022-09-09T02:49:12;4.95;;;1.88;;
53646;SDS011;39550;52.230;5.194;2022-09-09T02:52:11;3.55;;;1.90;;
53646;SDS011;39550;52.230;5.194;2022-09-09T02:54:42;3.80;;;2.00;;
53646;SDS011;39550;52.230;5.194;2022-09-09T02:59:47;3.33;;;2.00;;
53646;SDS011;39550;52.230;5.194;2022-09-09T03:02:14;3.55;;;2.00;;
53646;SDS011;39550;52.230;5.194;2022-09-09T03:04:39;3.78;;;1.90;;
53646;SDS011;39550;52.230;5.194;2022-09-09T03:07:08;4.13;;;2.10;;
53646;SDS011;39550;52.230;5.194;2022-09-09T03:09:33;4.20;;;2.10;;
53646;SDS011;39550;52.230;5.194;2022-09-09T03:11:58;3.67;;;1.90;;
53646;SDS011;39550;52.230;5.194;2022-09-09T03:14:24;4.40;;;2.03;;
53646;SDS011;39550;52.230;5.194;2022-09-09T03:16:53;3.42;;;1.77;;
53646;SDS011;39550;52.230;5.194;2022-09-09T03:19:19;4.10;;;1.98;;
53646;SDS011;39550;52.230;5.194;2022-09-09T03:21:45;3.70;;;2.10;;
53646;SDS011;39550;52.230;5.194;2022-09-09T03:24:12;3.30;;;1.90;;
53646;SDS011;39550;52.230;5.194;2022-09-09T03:26:39;3.70;;;1.98;;
53646;SDS011;39550;52.230;5.194;2022-09-09T03:29:05;3.80;;;1.80;;
53646;SDS011;39550;52.230;5.194;2022-09-09T03:31:32;4.78;;;2.03;;
53646;SDS011;39550;52.230;5.194;2022-09-09T03:36:26;3.58;;;2.08;;
53646;SDS011;39550;52.230;5.194;2022-09-09T03:38:53;4.00;;;2.15;;
53646;SDS011;39550;52.230;5.194;2022-09-09T03:41:22;5.28;;;2.40;;
53646;SDS011;39550;52.230;5.194;2022-09-09T03:43:49;3.63;;;1.90;;
53646;SDS011;39550;52.230;5.194;2022-09-09T03:46:15;4.30;;;2.13;;
53646;SDS011;39550;52.230;5.194;2022-09-09T03:48:41;3.42;;;1.83;;
53646;SDS011;39550;52.230;5.194;2022-09-09T03:51:06;3.40;;;1.88;;
53646;SDS011;39550;52.230;5.194;2022-09-09T03:53:31;4.50;;;2.20;;
53646;SDS011;39550;52.230;5.194;2022-09-09T03:55:58;4.20;;;1.73;;
53646;SDS011;39550;52.230;5.194;2022-09-09T03:58:24;3.92;;;1.90;;
53646;SDS011;39550;52.230;5.194;2022-09-09T04:00:58;3.35;;;1.92;;
53646;SDS011;39550;52.230;5.194;2022-09-09T04:03:26;3.78;;;1.83;;
53646;SDS011;39550;52.230;5.194;2022-09-09T04:05:51;4.05;;;1.77;;
53646;SDS011;39550;52.230;5.194;2022-09-09T04:08:18;5.40;;;2.35;;
53646;SDS011;39550;52.230;5.194;2022-09-09T04:10:44;3.58;;;1.90;;
53646;SDS011;39550;52.230;5.194;2022-09-09T04:13:14;3.35;;;1.83;;
53646;SDS011;39550;52.230;5.194;2022-09-09T04:15:41;4.18;;;1.92;;
53646;SDS011;39550;52.230;5.194;2022-09-09T04:18:07;4.57;;;2.00;;
53646;SDS011;39550;52.230;5.194;2022-09-09T04:20:33;4.13;;;2.05;;
53646;SDS011;39550;52.230;5.194;2022-09-09T04:22:58;3.70;;;2.03;;
53646;SDS011;39550;52.230;5.194;2022-09-09T04:25:23;4.15;;;2.22;;
53646;SDS011;39550;52.230;5.194;2022-09-09T04:27:58;3.72;;;1.95;;
53646;SDS011;39550;52.230;5.194;2022-09-09T04:30:23;3.60;;;2.00;;
53646;SDS011;39550;52.230;5.194;2022-09-09T04:32:50;4.38;;;2.08;;
53646;SDS011;39550;52.230;5.194;2022-09-09T04:35:15;4.35;;;2.08;;
53646;SDS011;39550;52.230;5.194;2022-09-09T04:37:41;3.92;;;2.00;;
53646;SDS011;39550;52.230;5.194;2022-09-09T04:40:06;3.92;;;2.08;;
53646;SDS011;39550;52.230;5.194;2022-09-09T04:42:38;3.97;;;2.20;;
53646;SDS011;39550;52.230;5.194;2022-09-09T04:45:04;4.10;;;2.03;;
53646;SDS011;39550;52.230;5.194;2022-09-09T04:47:32;4.13;;;2.03;;
53646;SDS011;39550;52.230;5.194;2022-09-09T04:50:00;4.65;;;2.00;;
53646;SDS011;39550;52.230;5.194;2022-09-09T04:52:25;4.22;;;2.00;;
53646;SDS011;39550;52.230;5.194;2022-09-09T04:54:50;3.58;;;2.10;;
53646;SDS011;39550;52.230;5.194;2022-09-09T04:57:16;4.38;;;1.90;;
53646;SDS011;39550;52.230;5.194;2022-09-09T04:59:41;3.50;;;2.08;;
53646;SDS011;39550;52.230;5.194;2022-09-09T05:02:06;3.78;;;1.88;;
53646;SDS011;39550;52.230;5.194;2022-09-09T05:04:32;3.20;;;1.73;;
53646;SDS011;39550;52.230;5.194;2022-09-09T05:06:58;3.72;;;2.00;;
53646;SDS011;39550;52.230;5.194;2022-09-09T05:09:24;3.78;;;2.00;;
53646;SDS011;39550;52.230;5.194;2022-09-09T05:11:49;4.07;;;2.00;;
53646;SDS011;39550;52.230;5.194;2022-09-09T05:14:15;3.63;;;1.90;;
53646;SDS011;39550;52.230;5.194;2022-09-09T05:16:41;4.53;;;2.00;;
53646;SDS011;39550;52.230;5.194;2022-09-09T05:19:07;5.03;;;2.17;;
53646;SDS011;39550;52.230;5.194;2022-09-09T05:21:33;5.35;;;2.58;;
53646;SDS011;39550;52.230;5.194;2022-09-09T05:23:59;4.32;;;2.10;;
53646;SDS011;39550;52.230;5.194;2022-09-09T05:26:25;3.60;;;1.80;;
53646;SDS011;39550;52.230;5.194;2022-09-09T05:28:51;4.03;;;2.15;;
53646;SDS011;39550;52.230;5.194;2022-09-09T05:31:16;5.22;;;2.13;;
53646;SDS011;39550;52.230;5.194;2022-09-09T05:33:43;3.63;;;1.98;;
53646;SDS011;39550;52.230;5.194;2022-09-09T05:36:14;3.00;;;1.80;;
53646;SDS011;39550;52.230;5.194;2022-09-09T05:38:41;4.20;;;2.10;;
53646;SDS011;39550;52.230;5.194;2022-09-09T05:41:07;4.50;;;1.83;;
53646;SDS011;39550;52.230;5.194;2022-09-09T05:43:34;3.67;;;2.20;;
53646;SDS011;39550;52.230;5.194;2022-09-09T05:46:10;3.85;;;1.98;;
53646;SDS011;39550;52.230;5.194;2022-09-09T05:48:38;3.60;;;1.80;;
53646;SDS011;39550;52.230;5.194;2022-09-09T05:51:05;4.38;;;2.10;;
53646;SDS011;39550;52.230;5.194;2022-09-09T05:53:33;4.10;;;1.93;;
53646;SDS011;39550;52.230;5.194;2022-09-09T05:56:03;4.93;;;2.10;;
53646;SDS011;39550;52.230;5.194;2022-09-09T05:58:29;4.15;;;1.85;;
53646;SDS011;39550;52.230;5.194;2022-09-09T06:01:05;4.05;;;2.22;;
53646;SDS011;39550;52.230;5.194;2022-09-09T06:03:33;4.60;;;2.22;;
53646;SDS011;39550;52.230;5.194;2022-09-09T06:06:00;4.22;;;2.10;;
53646;SDS011;39550;52.230;5.194;2022-09-09T06:08:30;6.88;;;2.60;;
53646;SDS011;39550;52.230;5.194;2022-09-09T06:11:00;4.68;;;2.25;;
53646;SDS011;39550;52.230;5.194;2022-09-09T06:13:27;5.38;;;2.47;;
53646;SDS011;39550;52.230;5.194;2022-09-09T06:15:53;7.82;;;2.28;;
53646;SDS011;39550;52.230;5.194;2022-09-09T06:18:18;5.30;;;2.10;;
53646;SDS011;39550;52.230;5.194;2022-09-09T06:20:57;5.72;;;2.10;;
53646;SDS011;39550;52.230;5.194;2022-09-09T06:23:24;5.15;;;2.55;;
53646;SDS011;39550;52.230;5.194;2022-09-09T06:25:50;6.68;;;2.30;;
53646;SDS011;39550;52.230;5.194;2022-09-09T06:28:16;5.07;;;2.20;;
53646;SDS011;39550;52.230;5.194;2022-09-09T06:30:42;4.78;;;2.30;;
53646;SDS011;39550;52.230;5.194;2022-09-09T06:33:08;5.10;;;2.30;;
53646;SDS011;39550;52.230;5.194;2022-09-09T06:35:34;6.68;;;2.45;;
53646;SDS011;39550;52.230;5.194;2022-09-09T06:37:59;5.40;;;2.80;;
53646;SDS011;39550;52.230;5.194;2022-09-09T06:40:25;4.28;;;2.10;;
53646;SDS011;39550;52.230;5.194;2022-09-09T06:42:50;4.93;;;2.20;;
53646;SDS011;39550;52.230;5.194;2022-09-09T06:45:16;4.47;;;2.08;;
53646;SDS011;39550;52.230;5.194;2022-09-09T06:47:42;6.28;;;2.30;;
53646;SDS011;39550;52.230;5.194;2022-09-09T06:50:08;5.28;;;2.28;;
53646;SDS011;39550;52.230;5.194;2022-09-09T06:52:33;5.57;;;2.70;;
53646;SDS011;39550;52.230;5.194;2022-09-09T06:54:58;4.75;;;2.25;;
53646;SDS011;39550;52.230;5.194;2022-09-09T06:57:24;3.88;;;2.05;;
53646;SDS011;39550;52.230;5.194;2022-09-09T06:59:49;4.57;;;2.30;;
53646;SDS011;39550;52.230;5.194;2022-09-09T07:02:15;4.63;;;2.20;;
53646;SDS011;39550;52.230;5.194;2022-09-09T07:04:40;4.68;;;2.20;;
53646;SDS011;39550;52.230;5.194;2022-09-09T07:07:06;5.95;;;2.28;;
53646;SDS011;39550;52.230;5.194;2022-09-09T07:09:33;4.65;;;1.98;;
53646;SDS011;39550;52.230;5.194;2022-09-09T07:11:58;4.90;;;2.30;;
53646;SDS011;39550;52.230;5.194;2022-09-09T07:14:24;8.07;;;2.30;;
53646;SDS011;39550;52.230;5.194;2022-09-09T07:16:49;4.30;;;1.92;;
53646;SDS011;39550;52.230;5.194;2022-09-09T07:19:15;4.20;;;2.03;;
53646;SDS011;39550;52.230;5.194;2022-09-09T07:21:41;5.13;;;2.00;;
53646;SDS011;39550;52.230;5.194;2022-09-09T07:24:07;4.30;;;1.77;;
53646;SDS011;39550;52.230;5.194;2022-09-09T07:26:35;4.50;;;2.15;;
53646;SDS011;39550;52.230;5.194;2022-09-09T07:29:01;5.88;;;2.10;;
53646;SDS011;39550;52.230;5.194;2022-09-09T07:31:30;4.80;;;2.33;;
53646;SDS011;39550;52.230;5.194;2022-09-09T07:34:01;6.07;;;2.50;;
53646;SDS011;39550;52.230;5.194;2022-09-09T07:38:55;4.13;;;1.95;;
53646;SDS011;39550;52.230;5.194;2022-09-09T07:41:24;5.47;;;2.47;;
53646;SDS011;39550;52.230;5.194;2022-09-09T07:44:06;4.47;;;2.03;;
53646;SDS011;39550;52.230;5.194;2022-09-09T07:46:33;5.57;;;1.90;;
53646;SDS011;39550;52.230;5.194;2022-09-09T07:49:00;4.32;;;2.05;;
53646;SDS011;39550;52.230;5.194;2022-09-09T07:51:26;5.78;;;1.83;;
53646;SDS011;39550;52.230;5.194;2022-09-09T07:54:00;4.30;;;2.05;;
53646;SDS011;39550;52.230;5.194;2022-09-09T07:56:28;5.78;;;2.20;;
53646;SDS011;39550;52.230;5.194;2022-09-09T07:58:54;4.15;;;2.10;;
53646;SDS011;39550;52.230;5.194;2022-09-09T08:06:14;3.97;;;2.20;;
53646;SDS011;39550;52.230;5.194;2022-09-09T08:08:40;4.90;;;2.22;;
53646;SDS011;39550;52.230;5.194;2022-09-09T08:11:12;5.68;;;2.50;;
53646;SDS011;39550;52.230;5.194;2022-09-09T08:13:39;4.28;;;2.00;;
53646;SDS011;39550;52.230;5.194;2022-09-09T08:18:39;6.07;;;2.40;;
53646;SDS011;39550;52.230;5.194;2022-09-09T08:23:43;6.47;;;2.45;;
53646;SDS011;39550;52.230;5.194;2022-09-09T08:26:17;5.15;;;2.15;;
53646;SDS011;39550;52.230;5.194;2022-09-09T08:28:46;4.55;;;2.13;;
53646;SDS011;39550;52.230;5.194;2022-09-09T08:31:16;5.97;;;2.60;;
53646;SDS011;39550;52.230;5.194;2022-09-09T08:33:43;5.30;;;2.50;;
53646;SDS011;39550;52.230;5.194;2022-09-09T08:36:12;6.65;;;2.40;;
53646;SDS011;39550;52.230;5.194;2022-09-09T08:38:42;7.13;;;2.28;;
53646;SDS011;39550;52.230;5.194;2022-09-09T08:43:41;6.50;;;2.70;;
53646;SDS011;39550;52.230;5.194;2022-09-09T08:46:14;6.55;;;2.38;;
53646;SDS011;39550;52.230;5.194;2022-09-09T08:48:57;5.47;;;2.45;;
53646;SDS011;39550;52.230;5.194;2022-09-09T08:51:27;4.78;;;2.78;;
53646;SDS011;39550;52.230;5.194;2022-09-09T08:56:23;7.53;;;2.65;;
53646;SDS011;39550;52.230;5.194;2022-09-09T08:58:52;3.55;;;2.10;;
53646;SDS011;39550;52.230;5.194;2022-09-09T09:09:46;7.47;;;2.42;;
53646;SDS011;39550;52.230;5.194;2022-09-09T09:12:25;4.22;;;2.42;;
53646;SDS011;39550;52.230;5.194;2022-09-09T09:14:54;4.25;;;2.28;;
53646;SDS011;39550;52.230;5.194;2022-09-09T09:17:21;5.38;;;2.85;;
53646;SDS011;39550;52.230;5.194;2022-09-09T09:19:50;5.40;;;2.55;;
53646;SDS011;39550;52.230;5.194;2022-09-09T09:22:33;4.10;;;2.28;;
53646;SDS011;39550;52.230;5.194;2022-09-09T09:25:20;5.47;;;2.42;;
53646;SDS011;39550;52.230;5.194;2022-09-09T09:30:23;4.18;;;2.38;;
53646;SDS011;39550;52.230;5.194;2022-09-09T09:32:55;7.60;;;2.80;;
53646;SDS011;39550;52.230;5.194;2022-09-09T09:35:23;7.65;;;2.67;;
53646;SDS011;39550;52.230;5.194;2022-09-09T09:37:48;6.82;;;3.08;;
53646;SDS011;39550;52.230;5.194;2022-09-09T09:40:15;5.03;;;2.33;;
53646;SDS011;39550;52.230;5.194;2022-09-09T09:42:53;5.85;;;2.72;;
53646;SDS011;39550;52.230;5.194;2022-09-09T09:48:03;6.72;;;3.45;;
53646;SDS011;39550;52.230;5.194;2022-09-09T09:50:30;5.57;;;2.50;;
53646;SDS011;39550;52.230;5.194;2022-09-09T09:52:57;5.47;;;2.45;;
53646;SDS011;39550;52.230;5.194;2022-09-09T09:55:29;5.40;;;2.30;;
53646;SDS011;39550;52.230;5.194;2022-09-09T09:58:03;4.60;;;2.47;;
53646;SDS011;39550;52.230;5.194;2022-09-09T10:00:30;3.95;;;2.22;;
53646;SDS011;39550;52.230;5.194;2022-09-09T10:02:57;4.78;;;2.45;;
53646;SDS011;39550;52.230;5.194;2022-09-09T10:05:25;4.20;;;2.50;;
53646;SDS011;39550;52.230;5.194;2022-09-09T10:08:03;5.95;;;2.47;;
53646;SDS011;39550;52.230;5.194;2022-09-09T10:15:42;4.78;;;2.40;;
53646;SDS011;39550;52.230;5.194;2022-09-09T10:23:49;4.95;;;2.55;;
53646;SDS011;39550;52.230;5.194;2022-09-09T10:26:30;6.15;;;2.45;;
53646;SDS011;39550;52.230;5.194;2022-09-09T10:31:45;4.65;;;2.63;;
53646;SDS011;39550;52.230;5.194;2022-09-09T10:37:01;4.68;;;2.40;;
53646;SDS011;39550;52.230;5.194;2022-09-09T10:39:37;9.00;;;2.60;;
53646;SDS011;39550;52.230;5.194;2022-09-09T10:42:13;4.60;;;2.38;;
53646;SDS011;39550;52.230;5.194;2022-09-09T10:44:52;5.72;;;2.42;;
53646;SDS011;39550;52.230;5.194;2022-09-09T10:55:45;6.07;;;2.80;;
53646;SDS011;39550;52.230;5.194;2022-09-09T10:58:23;5.38;;;2.55;;
53646;SDS011;39550;52.230;5.194;2022-09-09T11:01:02;5.65;;;2.80;;
53646;SDS011;39550;52.230;5.194;2022-09-09T11:03:34;5.45;;;2.40;;
53646;SDS011;39550;52.230;5.194;2022-09-09T11:06:06;7.03;;;2.42;;
53646;SDS011;39550;52.230;5.194;2022-09-09T11:08:38;4.85;;;2.60;;
53646;SDS011;39550;52.230;5.194;2022-09-09T11:11:18;5.60;;;2.40;;
53646;SDS011;39550;52.230;5.194;2022-09-09T11:21:53;6.53;;;2.17;;
53646;SDS011;39550;52.230;5.194;2022-09-09T11:24:27;5.50;;;2.30;;
53646;SDS011;39550;52.230;5.194;2022-09-09T11:27:02;5.03;;;2.30;;
53646;SDS011;39550;52.230;5.194;2022-09-09T11:29:57;7.53;;;2.50;;
53646;SDS011;39550;52.230;5.194;2022-09-09T11:38:46;5.72;;;3.15;;
53646;SDS011;39550;52.230;5.194;2022-09-09T11:41:13;5.50;;;2.15;;
53646;SDS011;39550;52.230;5.194;2022-09-09T11:43:46;5.75;;;2.55;;
53646;SDS011;39550;52.230;5.194;2022-09-09T11:46:17;5.60;;;2.75;;
53646;SDS011;39550;52.230;5.194;2022-09-09T11:48:57;6.57;;;2.53;;
53646;SDS011;39550;52.230;5.194;2022-09-09T11:53:56;6.50;;;2.53;;
53646;SDS011;39550;52.230;5.194;2022-09-09T11:56:42;5.45;;;2.38;;
53646;SDS011;39550;52.230;5.194;2022-09-09T12:01:49;5.90;;;2.40;;
53646;SDS011;39550;52.230;5.194;2022-09-09T12:09:43;4.18;;;2.33;;
53646;SDS011;39550;52.230;5.194;2022-09-09T12:19:41;5.82;;;2.42;;
53646;SDS011;39550;52.230;5.194;2022-09-09T12:24:46;6.00;;;2.40;;
53646;SDS011;39550;52.230;5.194;2022-09-09T12:27:24;6.68;;;2.30;;
53646;SDS011;39550;52.230;5.194;2022-09-09T12:30:10;7.72;;;2.58;;
53646;SDS011;39550;52.230;5.194;2022-09-09T12:32:39;4.60;;;2.28;;
53646;SDS011;39550;52.230;5.194;2022-09-09T12:35:09;4.30;;;2.10;;
53646;SDS011;39550;52.230;5.194;2022-09-09T12:40:18;4.70;;;2.55;;
53646;SDS011;39550;52.230;5.194;2022-09-09T12:43:00;5.40;;;2.53;;
53646;SDS011;39550;52.230;5.194;2022-09-09T12:45:27;6.85;;;2.60;;
53646;SDS011;39550;52.230;5.194;2022-09-09T12:47:57;5.13;;;2.65;;
53646;SDS011;39550;52.230;5.194;2022-09-09T12:50:27;5.30;;;2.22;;
53646;SDS011;39550;52.230;5.194;2022-09-09T12:52:55;6.00;;;2.30;;
53646;SDS011;39550;52.230;5.194;2022-09-09T12:55:35;4.13;;;2.22;;
53646;SDS011;39550;52.230;5.194;2022-09-09T13:00:32;4.82;;;2.60;;
53646;SDS011;39550;52.230;5.194;2022-09-09T13:02:59;6.80;;;2.30;;
53646;SDS011;39550;52.230;5.194;2022-09-09T13:05:28;4.68;;;2.50;;
53646;SDS011;39550;52.230;5.194;2022-09-09T13:08:08;5.22;;;2.40;;
53646;SDS011;39550;52.230;5.194;2022-09-09T13:10:36;5.32;;;2.30;;
53646;SDS011;39550;52.230;5.194;2022-09-09T13:15:49;5.22;;;2.70;;
53646;SDS011;39550;52.230;5.194;2022-09-09T13:18:16;5.88;;;2.30;;
53646;SDS011;39550;52.230;5.194;2022-09-09T13:20:46;5.68;;;2.38;;
53646;SDS011;39550;52.230;5.194;2022-09-09T13:23:13;5.10;;;2.30;;
53646;SDS011;39550;52.230;5.194;2022-09-09T13:25:40;6.07;;;2.40;;
53646;SDS011;39550;52.230;5.194;2022-09-09T13:28:18;4.68;;;2.40;;
53646;SDS011;39550;52.230;5.194;2022-09-09T13:30:54;4.97;;;2.20;;
53646;SDS011;39550;52.230;5.194;2022-09-09T13:33:28;5.57;;;2.75;;
53646;SDS011;39550;52.230;5.194;2022-09-09T13:36:02;4.93;;;2.78;;
53646;SDS011;39550;52.230;5.194;2022-09-09T13:39:13;5.63;;;2.30;;
53646;SDS011;39550;52.230;5.194;2022-09-09T13:41:21;5.03;;;2.50;;
53646;SDS011;39550;52.230;5.194;2022-09-09T13:43:51;4.82;;;2.25;;
53646;SDS011;39550;52.230;5.194;2022-09-09T13:51:33;4.83;;;2.40;;
53646;SDS011;39550;52.230;5.194;2022-09-09T13:54:06;4.22;;;2.50;;
53646;SDS011;39550;52.230;5.194;2022-09-09T13:56:35;5.47;;;2.40;;
53646;SDS011;39550;52.230;5.194;2022-09-09T13:59:02;5.00;;;2.67;;
53646;SDS011;39550;52.230;5.194;2022-09-09T14:01:29;5.15;;;2.33;;
53646;SDS011;39550;52.230;5.194;2022-09-09T14:03:54;4.10;;;2.40;;
53646;SDS011;39550;52.230;5.194;2022-09-09T14:06:20;4.68;;;2.30;;
53646;SDS011;39550;52.230;5.194;2022-09-09T14:08:49;4.05;;;2.30;;
53646;SDS011;39550;52.230;5.194;2022-09-09T14:11:16;4.32;;;2.25;;
53646;SDS011;39550;52.230;5.194;2022-09-09T14:13:42;4.95;;;2.40;;
53646;SDS011;39550;52.230;5.194;2022-09-09T14:16:08;4.20;;;2.40;;
53646;SDS011;39550;52.230;5.194;2022-09-09T14:18:33;4.22;;;2.45;;
53646;SDS011;39550;52.230;5.194;2022-09-09T14:20:59;8.60;;;3.40;;
53646;SDS011;39550;52.230;5.194;2022-09-09T14:23:24;4.47;;;2.40;;
53646;SDS011;39550;52.230;5.194;2022-09-09T14:25:50;6.68;;;2.33;;
53646;SDS011;39550;52.230;5.194;2022-09-09T14:28:16;4.68;;;2.38;;
53646;SDS011;39550;52.230;5.194;2022-09-09T14:30:42;5.10;;;2.75;;
53646;SDS011;39550;52.230;5.194;2022-09-09T14:33:09;5.05;;;2.60;;
53646;SDS011;39550;52.230;5.194;2022-09-09T14:35:36;4.80;;;2.53;;
53646;SDS011;39550;52.230;5.194;2022-09-09T14:38:03;5.43;;;2.63;;
53646;SDS011;39550;52.230;5.194;2022-09-09T14:40:29;4.35;;;2.40;;
53646;SDS011;39550;52.230;5.194;2022-09-09T14:42:54;5.10;;;2.63;;
53646;SDS011;39550;52.230;5.194;2022-09-09T14:45:21;5.35;;;2.88;;
53646;SDS011;39550;52.230;5.194;2022-09-09T14:47:49;4.65;;;2.10;;
53646;SDS011;39550;52.230;5.194;2022-09-09T14:50:14;5.28;;;2.60;;
53646;SDS011;39550;52.230;5.194;2022-09-09T14:52:39;6.30;;;2.50;;
53646;SDS011;39550;52.230;5.194;2022-09-09T14:55:05;3.70;;;2.60;;
53646;SDS011;39550;52.230;5.194;2022-09-09T14:57:32;5.75;;;2.60;;
53646;SDS011;39550;52.230;5.194;2022-09-09T14:59:57;5.47;;;2.35;;
53646;SDS011;39550;52.230;5.194;2022-09-09T15:02:22;5.20;;;2.28;;
53646;SDS011;39550;52.230;5.194;2022-09-09T15:04:48;4.78;;;2.35;;
53646;SDS011;39550;52.230;5.194;2022-09-09T15:07:15;5.50;;;3.10;;
53646;SDS011;39550;52.230;5.194;2022-09-09T15:09:41;5.43;;;2.90;;
53646;SDS011;39550;52.230;5.194;2022-09-09T15:12:07;3.83;;;2.58;;
53646;SDS011;39550;52.230;5.194;2022-09-09T15:14:32;4.07;;;2.63;;
53646;SDS011;39550;52.230;5.194;2022-09-09T15:16:57;5.22;;;2.70;;
53646;SDS011;39550;52.230;5.194;2022-09-09T15:19:23;7.57;;;2.80;;
53646;SDS011;39550;52.230;5.194;2022-09-09T15:21:48;5.82;;;3.00;;
53646;SDS011;39550;52.230;5.194;2022-09-09T15:24:14;6.80;;;2.50;;
53646;SDS011;39550;52.230;5.194;2022-09-09T15:26:41;4.53;;;2.60;;
53646;SDS011;39550;52.230;5.194;2022-09-09T15:29:06;6.25;;;2.60;;
53646;SDS011;39550;52.230;5.194;2022-09-09T15:31:33;4.68;;;2.38;;
53646;SDS011;39550;52.230;5.194;2022-09-09T15:33:59;3.80;;;2.28;;
53646;SDS011;39550;52.230;5.194;2022-09-09T15:36:27;5.15;;;2.90;;
53646;SDS011;39550;52.230;5.194;2022-09-09T15:38:53;3.80;;;2.42;;
53646;SDS011;39550;52.230;5.194;2022-09-09T15:41:19;4.00;;;2.22;;
53646;SDS011;39550;52.230;5.194;2022-09-09T15:43:47;4.35;;;2.08;;
53646;SDS011;39550;52.230;5.194;2022-09-09T15:46:25;3.50;;;1.98;;
53646;SDS011;39550;52.230;5.194;2022-09-09T15:48:54;5.82;;;2.38;;
53646;SDS011;39550;52.230;5.194;2022-09-09T15:51:21;5.05;;;2.20;;
53646;SDS011;39550;52.230;5.194;2022-09-09T15:53:48;6.43;;;2.50;;
53646;SDS011;39550;52.230;5.194;2022-09-09T15:56:14;4.63;;;2.30;;
53646;SDS011;39550;52.230;5.194;2022-09-09T15:58:39;5.90;;;2.30;;
53646;SDS011;39550;52.230;5.194;2022-09-09T16:01:05;4.75;;;2.20;;
53646;SDS011;39550;52.230;5.194;2022-09-09T16:03:35;4.68;;;2.30;;
53646;SDS011;39550;52.230;5.194;2022-09-09T16:06:02;6.53;;;2.47;;
53646;SDS011;39550;52.230;5.194;2022-09-09T16:08:32;4.90;;;2.10;;
53646;SDS011;39550;52.230;5.194;2022-09-09T16:11:06;5.80;;;2.17;;
53646;SDS011;39550;52.230;5.194;2022-09-09T16:13:35;3.80;;;2.05;;
53646;SDS011;39550;52.230;5.194;2022-09-09T16:16:01;4.45;;;2.50;;
53646;SDS011;39550;52.230;5.194;2022-09-09T16:18:32;4.85;;;2.20;;
53646;SDS011;39550;52.230;5.194;2022-09-09T16:21:01;7.80;;;2.33;;
53646;SDS011;39550;52.230;5.194;2022-09-09T16:23:30;4.20;;;2.23;;
53646;SDS011;39550;52.230;5.194;2022-09-09T16:25:59;4.95;;;2.13;;
53646;SDS011;39550;52.230;5.194;2022-09-09T16:28:25;4.93;;;2.65;;
53646;SDS011;39550;52.230;5.194;2022-09-09T16:30:50;4.95;;;2.58;;
53646;SDS011;39550;52.230;5.194;2022-09-09T16:33:16;4.13;;;2.40;;
53646;SDS011;39550;52.230;5.194;2022-09-09T16:35:43;3.80;;;2.00;;
53646;SDS011;39550;52.230;5.194;2022-09-09T16:38:09;4.80;;;2.38;;
53646;SDS011;39550;52.230;5.194;2022-09-09T16:40:35;4.00;;;2.15;;
53646;SDS011;39550;52.230;5.194;2022-09-09T16:43:01;4.40;;;2.10;;
53646;SDS011;39550;52.230;5.194;2022-09-09T16:45:27;4.07;;;2.10;;
53646;SDS011;39550;52.230;5.194;2022-09-09T16:47:52;3.90;;;2.30;;
53646;SDS011;39550;52.230;5.194;2022-09-09T16:50:18;5.50;;;2.20;;
53646;SDS011;39550;52.230;5.194;2022-09-09T16:52:43;4.13;;;2.13;;
53646;SDS011;39550;52.230;5.194;2022-09-09T16:55:08;3.97;;;2.20;;
53646;SDS011;39550;52.230;5.194;2022-09-09T16:57:34;3.58;;;1.95;;
53646;SDS011;39550;52.230;5.194;2022-09-09T16:59:59;5.00;;;2.28;;
53646;SDS011;39550;52.230;5.194;2022-09-09T17:02:26;4.00;;;2.22;;
53646;SDS011;39550;52.230;5.194;2022-09-09T17:04:51;4.22;;;1.90;;
53646;SDS011;39550;52.230;5.194;2022-09-09T17:07:16;3.70;;;2.10;;
53646;SDS011;39550;52.230;5.194;2022-09-09T17:09:44;4.72;;;2.22;;
53646;SDS011;39550;52.230;5.194;2022-09-09T17:12:10;4.47;;;2.15;;
53646;SDS011;39550;52.230;5.194;2022-09-09T17:14:37;5.00;;;2.20;;
53646;SDS011;39550;52.230;5.194;2022-09-09T17:17:02;4.90;;;2.30;;
53646;SDS011;39550;52.230;5.194;2022-09-09T17:19:29;6.47;;;2.50;;
53646;SDS011;39550;52.230;5.194;2022-09-09T17:21:55;8.20;;;2.53;;
53646;SDS011;39550;52.230;5.194;2022-09-09T17:24:21;6.63;;;2.30;;
53646;SDS011;39550;52.230;5.194;2022-09-09T17:26:47;7.80;;;2.40;;
53646;SDS011;39550;52.230;5.194;2022-09-09T17:29:13;4.25;;;2.38;;